sensor_id;sensor_type;location;lat;lon;timestamp;P1;durP1;ratioP1;P2;durP2;ratioP2
53245;SDS011;39569;51.090;-1.786;2022-08-19T00:00:48;7.55;;;3.10;;
53245;SDS011;39569;51.090;-1.786;2022-08-19T00:03:15;6.82;;;3.90;;
53245;SDS011;39569;51.090;-1.786;2022-08-19T00:05:43;7.93;;;3.42;;
53245;SDS011;39569;51.090;-1.786;2022-08-19T00:08:10;7.70;;;3.40;;
53245;SDS011;39569;51.090;-1.786;2022-08-19T00:10:37;2.90;;;2.17;;
53245;SDS011;39569;51.090;-1.786;2022-08-19T00:13:04;1.73;;;1.63;;
53245;SDS011;39569;51.090;-1.786;2022-08-19T00:15:30;3.63;;;2.22;;
53245;SDS011;39569;51.090;-1.786;2022-08-19T00:17:57;2.42;;;1.50;;
53245;SDS011;39569;51.090;-1.786;2022-08-19T00:20:24;2.25;;;1.42;;
53245;SDS011;39569;51.090;-1.786;2022-08-19T00:22:52;3.17;;;1.63;;
53245;SDS011;39569;51.090;-1.786;2022-08-19T00:25:20;1.58;;;1.25;;
53245;SDS011;39569;51.090;-1.786;2022-08-19T00:27:48;6.07;;;1.13;;
53245;SDS011;39569;51.090;-1.786;2022-08-19T00:30:16;2.50;;;1.40;;
53245;SDS011;39569;51.090;-1.786;2022-08-19T00:32:43;0.77;;;0.75;;
53245;SDS011;39569;51.090;-1.786;2022-08-19T00:35:10;12.60;;;1.30;;
53245;SDS011;39569;51.090;-1.786;2022-08-19T00:37:37;1.70;;;1.20;;
53245;SDS011;39569;51.090;-1.786;2022-08-19T00:40:10;1.38;;;1.35;;
53245;SDS011;39569;51.090;-1.786;2022-08-19T00:42:38;1.52;;;1.42;;
53245;SDS011;39569;51.090;-1.786;2022-08-19T00:45:09;1.77;;;1.30;;
53245;SDS011;39569;51.090;-1.786;2022-08-19T00:47:37;1.60;;;1.50;;
53245;SDS011;39569;51.090;-1.786;2022-08-19T00:50:05;5.07;;;1.90;;
53245;SDS011;39569;51.090;-1.786;2022-08-19T00:52:36;1.63;;;1.17;;
53245;SDS011;39569;51.090;-1.786;2022-08-19T00:55:13;2.47;;;1.70;;
53245;SDS011;39569;51.090;-1.786;2022-08-19T00:57:44;4.28;;;2.13;;
53245;SDS011;39569;51.090;-1.786;2022-08-19T01:00:15;3.55;;;2.47;;
53245;SDS011;39569;51.090;-1.786;2022-08-19T01:02:44;3.70;;;1.40;;
53245;SDS011;39569;51.090;-1.786;2022-08-19T01:05:12;5.53;;;1.60;;
53245;SDS011;39569;51.090;-1.786;2022-08-19T01:07:43;1.92;;;1.60;;
53245;SDS011;39569;51.090;-1.786;2022-08-19T01:10:13;2.15;;;1.20;;
53245;SDS011;39569;51.090;-1.786;2022-08-19T01:12:43;1.80;;;1.70;;
53245;SDS011;39569;51.090;-1.786;2022-08-19T01:15:12;2.83;;;1.92;;
53245;SDS011;39569;51.090;-1.786;2022-08-19T01:17:42;4.82;;;1.70;;
53245;SDS011;39569;51.090;-1.786;2022-08-19T01:20:11;5.15;;;1.85;;
53245;SDS011;39569;51.090;-1.786;2022-08-19T01:22:43;4.50;;;1.48;;
53245;SDS011;39569;51.090;-1.786;2022-08-19T01:25:12;1.98;;;1.65;;
53245;SDS011;39569;51.090;-1.786;2022-08-19T01:27:41;5.07;;;1.77;;
53245;SDS011;39569;51.090;-1.786;2022-08-19T01:30:13;3.80;;;1.63;;
53245;SDS011;39569;51.090;-1.786;2022-08-19T01:32:41;1.25;;;1.05;;
53245;SDS011;39569;51.090;-1.786;2022-08-19T01:35:10;3.03;;;1.20;;
53245;SDS011;39569;51.090;-1.786;2022-08-19T01:37:43;0.95;;;0.82;;
53245;SDS011;39569;51.090;-1.786;2022-08-19T01:40:11;2.80;;;1.00;;
53245;SDS011;39569;51.090;-1.786;2022-08-19T01:42:38;0.75;;;0.75;;
53245;SDS011;39569;51.090;-1.786;2022-08-19T01:45:05;0.80;;;0.80;;
53245;SDS011;39569;51.090;-1.786;2022-08-19T01:47:33;0.90;;;0.90;;
53245;SDS011;39569;51.090;-1.786;2022-08-19T01:50:01;1.38;;;0.68;;
53245;SDS011;39569;51.090;-1.786;2022-08-19T01:52:29;0.80;;;0.80;;
53245;SDS011;39569;51.090;-1.786;2022-08-19T01:54:57;0.73;;;0.73;;
53245;SDS011;39569;51.090;-1.786;2022-08-19T01:57:24;3.00;;;0.65;;
53245;SDS011;39569;51.090;-1.786;2022-08-19T01:59:51;0.60;;;0.60;;
53245;SDS011;39569;51.090;-1.786;2022-08-19T02:02:18;1.63;;;0.68;;
53245;SDS011;39569;51.090;-1.786;2022-08-19T02:04:45;0.88;;;0.60;;
53245;SDS011;39569;51.090;-1.786;2022-08-19T02:07:13;0.70;;;0.70;;
53245;SDS011;39569;51.090;-1.786;2022-08-19T02:09:39;0.32;;;0.32;;
53245;SDS011;39569;51.090;-1.786;2022-08-19T02:12:08;0.75;;;0.57;;
53245;SDS011;39569;51.090;-1.786;2022-08-19T02:14:34;0.22;;;0.22;;
53245;SDS011;39569;51.090;-1.786;2022-08-19T02:17:02;0.80;;;0.40;;
53245;SDS011;39569;51.090;-1.786;2022-08-19T02:19:29;1.48;;;0.68;;
53245;SDS011;39569;51.090;-1.786;2022-08-19T02:21:56;0.50;;;0.50;;
53245;SDS011;39569;51.090;-1.786;2022-08-19T02:24:23;0.68;;;0.68;;
53245;SDS011;39569;51.090;-1.786;2022-08-19T02:26:50;0.88;;;0.75;;
53245;SDS011;39569;51.090;-1.786;2022-08-19T02:29:18;0.20;;;0.20;;
53245;SDS011;39569;51.090;-1.786;2022-08-19T02:31:45;0.52;;;0.52;;
53245;SDS011;39569;51.090;-1.786;2022-08-19T02:34:13;0.20;;;0.20;;
53245;SDS011;39569;51.090;-1.786;2022-08-19T02:36:39;0.30;;;0.30;;
53245;SDS011;39569;51.090;-1.786;2022-08-19T02:39:06;1.25;;;0.57;;
53245;SDS011;39569;51.090;-1.786;2022-08-19T02:41:32;0.55;;;0.47;;
53245;SDS011;39569;51.090;-1.786;2022-08-19T02:44:00;0.43;;;0.43;;
53245;SDS011;39569;51.090;-1.786;2022-08-19T02:46:31;0.82;;;0.57;;
53245;SDS011;39569;51.090;-1.786;2022-08-19T02:49:00;2.00;;;0.45;;
53245;SDS011;39569;51.090;-1.786;2022-08-19T02:51:35;0.40;;;0.40;;
53245;SDS011;39569;51.090;-1.786;2022-08-19T02:54:05;0.63;;;0.57;;
53245;SDS011;39569;51.090;-1.786;2022-08-19T02:56:34;1.15;;;0.70;;
53245;SDS011;39569;51.090;-1.786;2022-08-19T02:59:01;0.68;;;0.60;;
53245;SDS011;39569;51.090;-1.786;2022-08-19T03:01:32;1.38;;;0.70;;
53245;SDS011;39569;51.090;-1.786;2022-08-19T03:04:00;0.35;;;0.35;;
53245;SDS011;39569;51.090;-1.786;2022-08-19T03:06:29;0.43;;;0.43;;
53245;SDS011;39569;51.090;-1.786;2022-08-19T03:08:57;0.35;;;0.35;;
53245;SDS011;39569;51.090;-1.786;2022-08-19T03:11:25;1.08;;;0.60;;
53245;SDS011;39569;51.090;-1.786;2022-08-19T03:13:54;0.40;;;0.40;;
53245;SDS011;39569;51.090;-1.786;2022-08-19T03:16:22;0.60;;;0.60;;
53245;SDS011;39569;51.090;-1.786;2022-08-19T03:18:52;2.60;;;0.50;;
53245;SDS011;39569;51.090;-1.786;2022-08-19T03:21:21;0.73;;;0.60;;
53245;SDS011;39569;51.090;-1.786;2022-08-19T03:23:49;3.35;;;0.90;;
53245;SDS011;39569;51.090;-1.786;2022-08-19T03:26:19;0.60;;;0.55;;
53245;SDS011;39569;51.090;-1.786;2022-08-19T03:28:46;0.77;;;0.77;;
53245;SDS011;39569;51.090;-1.786;2022-08-19T03:31:15;0.30;;;0.30;;
53245;SDS011;39569;51.090;-1.786;2022-08-19T03:33:43;0.93;;;0.93;;
53245;SDS011;39569;51.090;-1.786;2022-08-19T03:36:12;1.03;;;0.43;;
53245;SDS011;39569;51.090;-1.786;2022-08-19T03:38:42;0.60;;;0.60;;
53245;SDS011;39569;51.090;-1.786;2022-08-19T03:41:12;3.00;;;1.10;;
53245;SDS011;39569;51.090;-1.786;2022-08-19T03:43:40;3.17;;;1.98;;
53245;SDS011;39569;51.090;-1.786;2022-08-19T03:46:10;4.45;;;0.77;;
53245;SDS011;39569;51.090;-1.786;2022-08-19T03:48:39;1.00;;;0.90;;
53245;SDS011;39569;51.090;-1.786;2022-08-19T03:51:08;2.08;;;1.27;;
53245;SDS011;39569;51.090;-1.786;2022-08-19T03:53:44;1.05;;;0.65;;
53245;SDS011;39569;51.090;-1.786;2022-08-19T03:56:12;3.33;;;1.17;;
53245;SDS011;39569;51.090;-1.786;2022-08-19T03:58:40;1.23;;;1.02;;
53245;SDS011;39569;51.090;-1.786;2022-08-19T04:01:07;0.95;;;0.60;;
53245;SDS011;39569;51.090;-1.786;2022-08-19T04:03:36;1.38;;;1.08;;
53245;SDS011;39569;51.090;-1.786;2022-08-19T04:06:09;5.53;;;1.65;;
53245;SDS011;39569;51.090;-1.786;2022-08-19T04:08:39;1.75;;;0.90;;
53245;SDS011;39569;51.090;-1.786;2022-08-19T04:11:07;1.20;;;0.90;;
53245;SDS011;39569;51.090;-1.786;2022-08-19T04:13:34;3.95;;;1.30;;
53245;SDS011;39569;51.090;-1.786;2022-08-19T04:16:01;2.13;;;1.20;;
53245;SDS011;39569;51.090;-1.786;2022-08-19T04:18:28;3.05;;;1.48;;
53245;SDS011;39569;51.090;-1.786;2022-08-19T04:20:56;1.25;;;0.73;;
53245;SDS011;39569;51.090;-1.786;2022-08-19T04:23:23;4.50;;;1.50;;
53245;SDS011;39569;51.090;-1.786;2022-08-19T04:25:51;3.53;;;0.93;;
53245;SDS011;39569;51.090;-1.786;2022-08-19T04:28:18;4.30;;;0.90;;
53245;SDS011;39569;51.090;-1.786;2022-08-19T04:30:46;5.28;;;0.90;;
53245;SDS011;39569;51.090;-1.786;2022-08-19T04:33:16;1.60;;;0.80;;
53245;SDS011;39569;51.090;-1.786;2022-08-19T04:35:46;3.15;;;0.93;;
53245;SDS011;39569;51.090;-1.786;2022-08-19T04:38:14;4.10;;;1.63;;
53245;SDS011;39569;51.090;-1.786;2022-08-19T04:40:43;3.40;;;1.27;;
53245;SDS011;39569;51.090;-1.786;2022-08-19T04:43:31;5.50;;;1.88;;
53245;SDS011;39569;51.090;-1.786;2022-08-19T04:46:03;2.03;;;1.40;;
53245;SDS011;39569;51.090;-1.786;2022-08-19T04:48:31;5.10;;;1.60;;
53245;SDS011;39569;51.090;-1.786;2022-08-19T04:50:58;3.25;;;1.10;;
53245;SDS011;39569;51.090;-1.786;2022-08-19T04:53:25;2.00;;;1.33;;
53245;SDS011;39569;51.090;-1.786;2022-08-19T04:55:53;3.45;;;1.60;;
53245;SDS011;39569;51.090;-1.786;2022-08-19T04:58:21;4.57;;;1.10;;
53245;SDS011;39569;51.090;-1.786;2022-08-19T05:00:49;2.35;;;1.83;;
53245;SDS011;39569;51.090;-1.786;2022-08-19T05:03:17;1.90;;;0.98;;
53245;SDS011;39569;51.090;-1.786;2022-08-19T05:05:44;4.28;;;2.20;;
53245;SDS011;39569;51.090;-1.786;2022-08-19T05:08:14;4.10;;;2.03;;
53245;SDS011;39569;51.090;-1.786;2022-08-19T05:10:45;2.93;;;1.57;;
53245;SDS011;39569;51.090;-1.786;2022-08-19T05:13:13;3.47;;;1.27;;
53245;SDS011;39569;51.090;-1.786;2022-08-19T05:15:40;8.23;;;2.22;;
53245;SDS011;39569;51.090;-1.786;2022-08-19T05:18:08;4.88;;;1.35;;
53245;SDS011;39569;51.090;-1.786;2022-08-19T05:20:52;4.57;;;2.42;;
53245;SDS011;39569;51.090;-1.786;2022-08-19T05:23:36;8.07;;;2.40;;
53245;SDS011;39569;51.090;-1.786;2022-08-19T05:26:03;5.03;;;1.90;;
53245;SDS011;39569;51.090;-1.786;2022-08-19T05:28:30;2.83;;;1.25;;
53245;SDS011;39569;51.090;-1.786;2022-08-19T05:30:57;7.68;;;2.58;;
53245;SDS011;39569;51.090;-1.786;2022-08-19T05:33:25;6.05;;;2.28;;
53245;SDS011;39569;51.090;-1.786;2022-08-19T05:35:52;5.40;;;2.20;;
53245;SDS011;39569;51.090;-1.786;2022-08-19T05:38:19;4.57;;;2.38;;
53245;SDS011;39569;51.090;-1.786;2022-08-19T05:40:46;7.10;;;3.33;;
53245;SDS011;39569;51.090;-1.786;2022-08-19T05:43:13;8.70;;;2.97;;
53245;SDS011;39569;51.090;-1.786;2022-08-19T05:45:41;8.30;;;3.35;;
53245;SDS011;39569;51.090;-1.786;2022-08-19T05:48:09;11.45;;;1.95;;
53245;SDS011;39569;51.090;-1.786;2022-08-19T05:50:38;14.70;;;3.10;;
53245;SDS011;39569;51.090;-1.786;2022-08-19T05:53:06;8.85;;;3.40;;
53245;SDS011;39569;51.090;-1.786;2022-08-19T05:55:33;9.15;;;2.47;;
53245;SDS011;39569;51.090;-1.786;2022-08-19T05:58:03;8.02;;;3.38;;
53245;SDS011;39569;51.090;-1.786;2022-08-19T06:00:32;10.05;;;2.65;;
53245;SDS011;39569;51.090;-1.786;2022-08-19T06:02:59;7.22;;;3.00;;
53245;SDS011;39569;51.090;-1.786;2022-08-19T06:05:28;10.35;;;4.22;;
53245;SDS011;39569;51.090;-1.786;2022-08-19T06:07:56;15.95;;;3.33;;
53245;SDS011;39569;51.090;-1.786;2022-08-19T06:10:24;17.40;;;4.47;;
53245;SDS011;39569;51.090;-1.786;2022-08-19T06:12:52;16.42;;;4.40;;
53245;SDS011;39569;51.090;-1.786;2022-08-19T06:15:19;19.88;;;4.75;;
53245;SDS011;39569;51.090;-1.786;2022-08-19T06:17:47;8.07;;;4.72;;
53245;SDS011;39569;51.090;-1.786;2022-08-19T06:20:14;16.05;;;4.22;;
53245;SDS011;39569;51.090;-1.786;2022-08-19T06:22:43;6.90;;;3.57;;
53245;SDS011;39569;51.090;-1.786;2022-08-19T06:25:15;10.32;;;2.85;;
53245;SDS011;39569;51.090;-1.786;2022-08-19T06:27:42;14.80;;;5.17;;
53245;SDS011;39569;51.090;-1.786;2022-08-19T06:30:09;19.90;;;5.45;;
53245;SDS011;39569;51.090;-1.786;2022-08-19T06:32:37;15.80;;;4.85;;
53245;SDS011;39569;51.090;-1.786;2022-08-19T06:35:04;15.30;;;3.80;;
53245;SDS011;39569;51.090;-1.786;2022-08-19T06:37:32;14.10;;;3.38;;
53245;SDS011;39569;51.090;-1.786;2022-08-19T06:39:59;12.63;;;3.47;;
53245;SDS011;39569;51.090;-1.786;2022-08-19T06:42:27;16.58;;;5.10;;
53245;SDS011;39569;51.090;-1.786;2022-08-19T06:44:54;17.30;;;4.18;;
53245;SDS011;39569;51.090;-1.786;2022-08-19T06:47:21;14.50;;;4.40;;
53245;SDS011;39569;51.090;-1.786;2022-08-19T06:49:48;19.40;;;4.47;;
53245;SDS011;39569;51.090;-1.786;2022-08-19T06:52:15;19.45;;;4.53;;
53245;SDS011;39569;51.090;-1.786;2022-08-19T06:54:42;12.45;;;4.65;;
53245;SDS011;39569;51.090;-1.786;2022-08-19T06:57:09;22.75;;;6.35;;
53245;SDS011;39569;51.090;-1.786;2022-08-19T06:59:41;10.23;;;3.50;;
53245;SDS011;39569;51.090;-1.786;2022-08-19T07:02:08;24.33;;;5.22;;
53245;SDS011;39569;51.090;-1.786;2022-08-19T07:04:35;12.20;;;3.60;;
53245;SDS011;39569;51.090;-1.786;2022-08-19T07:07:04;8.60;;;4.00;;
53245;SDS011;39569;51.090;-1.786;2022-08-19T07:09:34;17.08;;;4.72;;
53245;SDS011;39569;51.090;-1.786;2022-08-19T07:12:03;20.10;;;4.72;;
53245;SDS011;39569;51.090;-1.786;2022-08-19T07:14:32;16.30;;;4.82;;
53245;SDS011;39569;51.090;-1.786;2022-08-19T07:17:04;16.05;;;4.05;;
53245;SDS011;39569;51.090;-1.786;2022-08-19T07:19:33;18.92;;;5.45;;
53245;SDS011;39569;51.090;-1.786;2022-08-19T07:22:01;18.38;;;5.03;;
53245;SDS011;39569;51.090;-1.786;2022-08-19T07:24:29;22.52;;;4.25;;
53245;SDS011;39569;51.090;-1.786;2022-08-19T07:26:57;17.45;;;5.88;;
53245;SDS011;39569;51.090;-1.786;2022-08-19T07:29:29;13.63;;;3.90;;
53245;SDS011;39569;51.090;-1.786;2022-08-19T07:31:58;15.25;;;3.78;;
53245;SDS011;39569;51.090;-1.786;2022-08-19T07:34:27;20.65;;;4.35;;
53245;SDS011;39569;51.090;-1.786;2022-08-19T07:36:55;9.93;;;4.47;;
53245;SDS011;39569;51.090;-1.786;2022-08-19T07:39:23;25.07;;;5.03;;
53245;SDS011;39569;51.090;-1.786;2022-08-19T07:41:52;16.67;;;5.17;;
53245;SDS011;39569;51.090;-1.786;2022-08-19T07:44:19;8.00;;;3.70;;
53245;SDS011;39569;51.090;-1.786;2022-08-19T07:46:48;14.65;;;4.82;;
53245;SDS011;39569;51.090;-1.786;2022-08-19T07:49:17;18.27;;;5.53;;
53245;SDS011;39569;51.090;-1.786;2022-08-19T07:51:47;17.25;;;4.63;;
53245;SDS011;39569;51.090;-1.786;2022-08-19T07:54:16;14.07;;;5.05;;
53245;SDS011;39569;51.090;-1.786;2022-08-19T07:56:43;15.02;;;3.97;;
53245;SDS011;39569;51.090;-1.786;2022-08-19T07:59:10;8.88;;;3.97;;
53245;SDS011;39569;51.090;-1.786;2022-08-19T08:01:38;16.83;;;5.50;;
53245;SDS011;39569;51.090;-1.786;2022-08-19T08:04:06;13.93;;;4.43;;
53245;SDS011;39569;51.090;-1.786;2022-08-19T08:06:52;6.03;;;3.22;;
53245;SDS011;39569;51.090;-1.786;2022-08-19T08:09:37;19.02;;;5.03;;
53245;SDS011;39569;51.090;-1.786;2022-08-19T08:12:06;23.20;;;4.65;;
53245;SDS011;39569;51.090;-1.786;2022-08-19T08:14:37;12.43;;;4.05;;
53245;SDS011;39569;51.090;-1.786;2022-08-19T08:17:06;12.77;;;3.75;;
53245;SDS011;39569;51.090;-1.786;2022-08-19T08:19:34;12.82;;;5.07;;
53245;SDS011;39569;51.090;-1.786;2022-08-19T08:22:03;10.85;;;4.88;;
53245;SDS011;39569;51.090;-1.786;2022-08-19T08:24:31;9.63;;;5.47;;
53245;SDS011;39569;51.090;-1.786;2022-08-19T08:26:59;11.30;;;4.30;;
53245;SDS011;39569;51.090;-1.786;2022-08-19T08:29:27;14.15;;;4.25;;
53245;SDS011;39569;51.090;-1.786;2022-08-19T08:31:56;8.18;;;3.75;;
53245;SDS011;39569;51.090;-1.786;2022-08-19T08:34:23;14.68;;;4.35;;
53245;SDS011;39569;51.090;-1.786;2022-08-19T08:36:50;10.18;;;3.58;;
53245;SDS011;39569;51.090;-1.786;2022-08-19T08:39:19;15.38;;;4.47;;
53245;SDS011;39569;51.090;-1.786;2022-08-19T08:41:49;9.30;;;4.43;;
53245;SDS011;39569;51.090;-1.786;2022-08-19T08:44:20;18.77;;;5.65;;
53245;SDS011;39569;51.090;-1.786;2022-08-19T08:46:55;15.70;;;3.88;;
53245;SDS011;39569;51.090;-1.786;2022-08-19T08:49:28;8.48;;;3.85;;
53245;SDS011;39569;51.090;-1.786;2022-08-19T08:51:59;14.82;;;4.35;;
53245;SDS011;39569;51.090;-1.786;2022-08-19T08:54:34;16.83;;;4.18;;
53245;SDS011;39569;51.090;-1.786;2022-08-19T08:57:07;13.97;;;5.07;;
53245;SDS011;39569;51.090;-1.786;2022-08-19T08:59:39;22.35;;;5.10;;
53245;SDS011;39569;51.090;-1.786;2022-08-19T09:02:08;11.70;;;3.90;;
53245;SDS011;39569;51.090;-1.786;2022-08-19T09:04:35;11.40;;;4.38;;
53245;SDS011;39569;51.090;-1.786;2022-08-19T09:07:09;11.65;;;4.55;;
53245;SDS011;39569;51.090;-1.786;2022-08-19T09:09:50;7.88;;;2.92;;
53245;SDS011;39569;51.090;-1.786;2022-08-19T09:12:21;14.27;;;4.90;;
53245;SDS011;39569;51.090;-1.786;2022-08-19T09:14:55;12.70;;;5.47;;
53245;SDS011;39569;51.090;-1.786;2022-08-19T09:17:26;19.98;;;4.70;;
53245;SDS011;39569;51.090;-1.786;2022-08-19T09:19:59;10.57;;;4.13;;
53245;SDS011;39569;51.090;-1.786;2022-08-19T09:22:30;8.38;;;3.22;;
53245;SDS011;39569;51.090;-1.786;2022-08-19T09:24:58;10.75;;;3.08;;
53245;SDS011;39569;51.090;-1.786;2022-08-19T09:27:25;12.55;;;4.03;;
53245;SDS011;39569;51.090;-1.786;2022-08-19T09:29:53;7.30;;;3.60;;
53245;SDS011;39569;51.090;-1.786;2022-08-19T09:32:20;6.35;;;3.13;;
53245;SDS011;39569;51.090;-1.786;2022-08-19T09:34:49;14.55;;;5.40;;
53245;SDS011;39569;51.090;-1.786;2022-08-19T09:37:19;12.98;;;4.25;;
53245;SDS011;39569;51.090;-1.786;2022-08-19T09:39:46;9.43;;;4.03;;
53245;SDS011;39569;51.090;-1.786;2022-08-19T09:42:15;13.98;;;4.35;;
53245;SDS011;39569;51.090;-1.786;2022-08-19T09:44:41;8.60;;;3.75;;
53245;SDS011;39569;51.090;-1.786;2022-08-19T09:47:10;9.93;;;4.13;;
53245;SDS011;39569;51.090;-1.786;2022-08-19T09:49:38;7.55;;;3.83;;
53245;SDS011;39569;51.090;-1.786;2022-08-19T09:52:07;11.30;;;3.37;;
53245;SDS011;39569;51.090;-1.786;2022-08-19T09:54:36;9.73;;;3.58;;
53245;SDS011;39569;51.090;-1.786;2022-08-19T09:57:03;8.30;;;3.28;;
53245;SDS011;39569;51.090;-1.786;2022-08-19T09:59:32;20.55;;;4.30;;
53245;SDS011;39569;51.090;-1.786;2022-08-19T10:02:00;17.25;;;4.18;;
53245;SDS011;39569;51.090;-1.786;2022-08-19T10:04:26;7.22;;;3.22;;
53245;SDS011;39569;51.090;-1.786;2022-08-19T10:07:14;19.52;;;3.65;;
53245;SDS011;39569;51.090;-1.786;2022-08-19T10:09:41;14.30;;;3.67;;
53245;SDS011;39569;51.090;-1.786;2022-08-19T10:12:08;14.27;;;3.05;;
53245;SDS011;39569;51.090;-1.786;2022-08-19T10:14:36;7.45;;;3.17;;
53245;SDS011;39569;51.090;-1.786;2022-08-19T10:17:04;7.80;;;3.22;;
53245;SDS011;39569;51.090;-1.786;2022-08-19T10:19:31;16.05;;;3.85;;
53245;SDS011;39569;51.090;-1.786;2022-08-19T10:22:02;7.30;;;3.38;;
53245;SDS011;39569;51.090;-1.786;2022-08-19T10:24:30;14.18;;;4.35;;
53245;SDS011;39569;51.090;-1.786;2022-08-19T10:26:57;12.55;;;3.63;;
53245;SDS011;39569;51.090;-1.786;2022-08-19T10:29:24;12.65;;;2.97;;
53245;SDS011;39569;51.090;-1.786;2022-08-19T10:31:54;7.57;;;2.60;;
53245;SDS011;39569;51.090;-1.786;2022-08-19T10:34:22;6.57;;;3.03;;
53245;SDS011;39569;51.090;-1.786;2022-08-19T10:36:49;5.90;;;2.92;;
53245;SDS011;39569;51.090;-1.786;2022-08-19T10:39:16;15.45;;;3.28;;
53245;SDS011;39569;51.090;-1.786;2022-08-19T10:41:43;9.18;;;3.65;;
53245;SDS011;39569;51.090;-1.786;2022-08-19T10:44:11;5.85;;;3.00;;
53245;SDS011;39569;51.090;-1.786;2022-08-19T10:46:39;4.72;;;2.47;;
53245;SDS011;39569;51.090;-1.786;2022-08-19T10:49:09;10.95;;;3.20;;
53245;SDS011;39569;51.090;-1.786;2022-08-19T10:51:37;18.02;;;3.47;;
53245;SDS011;39569;51.090;-1.786;2022-08-19T10:54:22;21.52;;;3.92;;
53245;SDS011;39569;51.090;-1.786;2022-08-19T10:57:08;12.60;;;3.45;;
53245;SDS011;39569;51.090;-1.786;2022-08-19T10:59:34;9.55;;;3.38;;
53245;SDS011;39569;51.090;-1.786;2022-08-19T11:02:02;9.15;;;4.35;;
53245;SDS011;39569;51.090;-1.786;2022-08-19T11:04:32;12.30;;;4.18;;
53245;SDS011;39569;51.090;-1.786;2022-08-19T11:06:59;33.88;;;5.45;;
53245;SDS011;39569;51.090;-1.786;2022-08-19T11:09:27;3.50;;;2.50;;
53245;SDS011;39569;51.090;-1.786;2022-08-19T11:11:53;9.50;;;4.13;;
53245;SDS011;39569;51.090;-1.786;2022-08-19T11:14:22;8.93;;;3.85;;
53245;SDS011;39569;51.090;-1.786;2022-08-19T11:16:50;10.55;;;2.92;;
53245;SDS011;39569;51.090;-1.786;2022-08-19T11:19:20;7.35;;;2.83;;
53245;SDS011;39569;51.090;-1.786;2022-08-19T11:21:50;9.35;;;3.95;;
53245;SDS011;39569;51.090;-1.786;2022-08-19T11:24:20;15.90;;;3.80;;
53245;SDS011;39569;51.090;-1.786;2022-08-19T11:26:49;10.53;;;3.20;;
53245;SDS011;39569;51.090;-1.786;2022-08-19T11:29:17;7.37;;;3.40;;
53245;SDS011;39569;51.090;-1.786;2022-08-19T11:31:47;6.28;;;3.22;;
53245;SDS011;39569;51.090;-1.786;2022-08-19T11:34:17;5.20;;;2.53;;
53245;SDS011;39569;51.090;-1.786;2022-08-19T11:36:46;17.52;;;3.80;;
53245;SDS011;39569;51.090;-1.786;2022-08-19T11:39:16;5.65;;;2.80;;
53245;SDS011;39569;51.090;-1.786;2022-08-19T11:41:45;11.30;;;4.50;;
53245;SDS011;39569;51.090;-1.786;2022-08-19T11:44:12;21.50;;;3.25;;
53245;SDS011;39569;51.090;-1.786;2022-08-19T11:46:40;11.27;;;2.85;;
53245;SDS011;39569;51.090;-1.786;2022-08-19T11:49:10;8.10;;;2.65;;
53245;SDS011;39569;51.090;-1.786;2022-08-19T11:51:37;21.63;;;4.80;;
53245;SDS011;39569;51.090;-1.786;2022-08-19T11:54:07;6.70;;;3.15;;
53245;SDS011;39569;51.090;-1.786;2022-08-19T11:56:36;4.55;;;2.85;;
53245;SDS011;39569;51.090;-1.786;2022-08-19T11:59:03;10.73;;;2.45;;
53245;SDS011;39569;51.090;-1.786;2022-08-19T12:01:30;7.38;;;2.88;;
53245;SDS011;39569;51.090;-1.786;2022-08-19T12:03:57;8.02;;;1.75;;
53245;SDS011;39569;51.090;-1.786;2022-08-19T12:06:26;4.63;;;3.00;;
53245;SDS011;39569;51.090;-1.786;2022-08-19T12:08:55;16.33;;;4.43;;
53245;SDS011;39569;51.090;-1.786;2022-08-19T12:11:23;4.10;;;2.15;;
53245;SDS011;39569;51.090;-1.786;2022-08-19T12:13:52;3.75;;;2.03;;
53245;SDS011;39569;51.090;-1.786;2022-08-19T12:16:21;12.10;;;3.50;;
53245;SDS011;39569;51.090;-1.786;2022-08-19T12:18:50;11.55;;;2.80;;
53245;SDS011;39569;51.090;-1.786;2022-08-19T12:21:18;7.03;;;3.60;;
53245;SDS011;39569;51.090;-1.786;2022-08-19T12:23:47;6.68;;;2.70;;
53245;SDS011;39569;51.090;-1.786;2022-08-19T12:26:15;20.00;;;3.95;;
53245;SDS011;39569;51.090;-1.786;2022-08-19T12:28:42;4.28;;;2.45;;
53245;SDS011;39569;51.090;-1.786;2022-08-19T12:31:12;7.22;;;3.33;;
53245;SDS011;39569;51.090;-1.786;2022-08-19T12:33:38;8.35;;;2.80;;
53245;SDS011;39569;51.090;-1.786;2022-08-19T12:36:07;5.68;;;2.63;;
53245;SDS011;39569;51.090;-1.786;2022-08-19T12:38:36;2.67;;;2.05;;
53245;SDS011;39569;51.090;-1.786;2022-08-19T12:41:03;13.77;;;3.05;;
53245;SDS011;39569;51.090;-1.786;2022-08-19T12:43:32;5.55;;;2.25;;
53245;SDS011;39569;51.090;-1.786;2022-08-19T12:45:59;10.27;;;3.80;;
53245;SDS011;39569;51.090;-1.786;2022-08-19T12:48:28;9.05;;;2.35;;
53245;SDS011;39569;51.090;-1.786;2022-08-19T12:50:55;8.05;;;3.60;;
53245;SDS011;39569;51.090;-1.786;2022-08-19T12:53:22;9.73;;;3.03;;
53245;SDS011;39569;51.090;-1.786;2022-08-19T12:55:54;8.10;;;2.55;;
53245;SDS011;39569;51.090;-1.786;2022-08-19T12:58:22;7.85;;;2.25;;
53245;SDS011;39569;51.090;-1.786;2022-08-19T13:00:49;12.23;;;2.75;;
53245;SDS011;39569;51.090;-1.786;2022-08-19T13:03:16;8.10;;;3.10;;
53245;SDS011;39569;51.090;-1.786;2022-08-19T13:05:45;7.78;;;2.90;;
53245;SDS011;39569;51.090;-1.786;2022-08-19T13:08:11;3.85;;;2.03;;
53245;SDS011;39569;51.090;-1.786;2022-08-19T13:10:38;9.35;;;2.72;;
53245;SDS011;39569;51.090;-1.786;2022-08-19T13:13:06;10.45;;;3.33;;
53245;SDS011;39569;51.090;-1.786;2022-08-19T13:15:35;13.15;;;4.00;;
53245;SDS011;39569;51.090;-1.786;2022-08-19T13:18:04;10.18;;;3.00;;
53245;SDS011;39569;51.090;-1.786;2022-08-19T13:20:31;8.63;;;3.90;;
53245;SDS011;39569;51.090;-1.786;2022-08-19T13:23:00;10.23;;;3.63;;
53245;SDS011;39569;51.090;-1.786;2022-08-19T13:25:27;12.68;;;3.13;;
53245;SDS011;39569;51.090;-1.786;2022-08-19T13:27:54;9.35;;;4.35;;
53245;SDS011;39569;51.090;-1.786;2022-08-19T13:30:21;13.18;;;3.90;;
53245;SDS011;39569;51.090;-1.786;2022-08-19T13:33:07;17.45;;;4.45;;
53245;SDS011;39569;51.090;-1.786;2022-08-19T13:35:39;7.28;;;2.75;;
53245;SDS011;39569;51.090;-1.786;2022-08-19T13:38:09;5.53;;;2.80;;
53245;SDS011;39569;51.090;-1.786;2022-08-19T13:40:37;10.48;;;2.72;;
53245;SDS011;39569;51.090;-1.786;2022-08-19T13:43:05;19.02;;;4.18;;
53245;SDS011;39569;51.090;-1.786;2022-08-19T13:45:33;9.48;;;3.83;;
53245;SDS011;39569;51.090;-1.786;2022-08-19T13:48:00;17.17;;;4.45;;
53245;SDS011;39569;51.090;-1.786;2022-08-19T13:50:32;6.85;;;2.45;;
53245;SDS011;39569;51.090;-1.786;2022-08-19T13:53:00;12.77;;;3.95;;
53245;SDS011;39569;51.090;-1.786;2022-08-19T13:55:29;7.13;;;3.03;;
53245;SDS011;39569;51.090;-1.786;2022-08-19T13:57:57;10.13;;;3.40;;
53245;SDS011;39569;51.090;-1.786;2022-08-19T14:00:27;9.98;;;4.25;;
53245;SDS011;39569;51.090;-1.786;2022-08-19T14:02:56;12.23;;;3.60;;
53245;SDS011;39569;51.090;-1.786;2022-08-19T14:05:23;21.42;;;3.70;;
53245;SDS011;39569;51.090;-1.786;2022-08-19T14:07:52;8.75;;;3.08;;
53245;SDS011;39569;51.090;-1.786;2022-08-19T14:10:19;19.35;;;3.33;;
53245;SDS011;39569;51.090;-1.786;2022-08-19T14:12:48;8.95;;;4.15;;
53245;SDS011;39569;51.090;-1.786;2022-08-19T14:15:15;6.95;;;3.00;;
53245;SDS011;39569;51.090;-1.786;2022-08-19T14:17:43;10.35;;;4.13;;
53245;SDS011;39569;51.090;-1.786;2022-08-19T14:20:12;10.60;;;3.17;;
53245;SDS011;39569;51.090;-1.786;2022-08-19T14:22:41;16.02;;;4.28;;
53245;SDS011;39569;51.090;-1.786;2022-08-19T14:25:11;18.30;;;4.18;;
53245;SDS011;39569;51.090;-1.786;2022-08-19T14:27:42;9.18;;;2.88;;
53245;SDS011;39569;51.090;-1.786;2022-08-19T14:30:12;7.80;;;3.60;;
53245;SDS011;39569;51.090;-1.786;2022-08-19T14:32:41;13.15;;;3.78;;
53245;SDS011;39569;51.090;-1.786;2022-08-19T14:35:09;20.90;;;5.78;;
53245;SDS011;39569;51.090;-1.786;2022-08-19T14:37:37;12.32;;;3.28;;
53245;SDS011;39569;51.090;-1.786;2022-08-19T14:40:05;18.80;;;4.78;;